EWG2823 LIMC-EDDS
Flight info
| Callsign | EWG2823 |
|---|---|
| Flight time | 0h 39m |
| Altitude | 24000 |
| Route | PEPAG DCT ABESI N851 UTAVO DCT SOPER N851 ROMIR T125 REUTL REUTL1W |
| Aircraft | A320/M-SDE3FGHIRWY/LB1 |
Departure
| Time | 2026-05-05 18:34 |
|---|---|
| Airport | Milan Malpensa International Airport (LIMC) |
Arrival
| Time | 2026-05-05 19:14 |
|---|---|
| Airport | Stuttgart Airport (EDDS) |
| Time | Latitude | Longitude | Altitude | Speed | Heading |
|---|---|---|---|---|---|
| 2026-05-05 17:51 | 45.62428 | 8.71766 | 741 ft | 0 kts | 324° |
| 2026-05-05 17:51 | 45.62419 | 8.71775 | 741 ft | 0 kts | 324° |
| 2026-05-05 18:18 | 45.62411 | 8.71784 | 741 ft | 4 kts | 323° |
| 2026-05-05 18:19 | 45.62389 | 8.71807 | 739 ft | 4 kts | 326° |
| 2026-05-05 18:19 | 45.62371 | 8.71825 | 739 ft | 4 kts | 326° |
| 2026-05-05 18:19 | 45.62348 | 8.71839 | 740 ft | 4 kts | 4° |
| 2026-05-05 18:19 | 45.62328 | 8.71826 | 740 ft | 4 kts | 67° |
| 2026-05-05 18:20 | 45.62322 | 8.71793 | 740 ft | 2 kts | 79° |
| 2026-05-05 18:20 | 45.62322 | 8.71790 | 740 ft | 0 kts | 79° |
| 2026-05-05 18:23 | 45.62322 | 8.71793 | 740 ft | 2 kts | 79° |
| 2026-05-05 18:23 | 45.62332 | 8.71859 | 741 ft | 7 kts | 79° |
| 2026-05-05 18:23 | 45.62342 | 8.71938 | 741 ft | 9 kts | 79° |
| 2026-05-05 18:23 | 45.62354 | 8.72019 | 740 ft | 8 kts | 79° |
| 2026-05-05 18:24 | 45.62359 | 8.72088 | 741 ft | 6 kts | 97° |
| 2026-05-05 18:24 | 45.62332 | 8.72120 | 741 ft | 5 kts | 165° |
| 2026-05-05 18:24 | 45.62303 | 8.72128 | 740 ft | 5 kts | 169° |
| 2026-05-05 18:24 | 45.62243 | 8.72144 | 741 ft | 10 kts | 169° |
| 2026-05-05 18:25 | 45.62177 | 8.72162 | 741 ft | 9 kts | 169° |
| 2026-05-05 18:25 | 45.62138 | 8.72172 | 741 ft | 8 kts | 169° |
| 2026-05-05 18:25 | 45.62070 | 8.72192 | 740 ft | 9 kts | 169° |
| 2026-05-05 18:25 | 45.61991 | 8.72214 | 741 ft | 11 kts | 169° |
| 2026-05-05 18:26 | 45.61922 | 8.72234 | 741 ft | 10 kts | 169° |
| 2026-05-05 18:26 | 45.61841 | 8.72256 | 742 ft | 18 kts | 168° |
| 2026-05-05 18:26 | 45.61682 | 8.72299 | 742 ft | 25 kts | 169° |
| 2026-05-05 18:26 | 45.61503 | 8.72347 | 742 ft | 27 kts | 169° |
| 2026-05-05 18:27 | 45.61395 | 8.72329 | 742 ft | 11 kts | 246° |
| 2026-05-05 18:27 | 45.61377 | 8.72221 | 742 ft | 11 kts | 245° |
| 2026-05-05 18:27 | 45.61299 | 8.72204 | 742 ft | 16 kts | 168° |
| 2026-05-05 18:27 | 45.61194 | 8.72235 | 742 ft | 14 kts | 169° |
| 2026-05-05 18:28 | 45.60988 | 8.72291 | 741 ft | 18 kts | 168° |
| 2026-05-05 18:28 | 45.60863 | 8.72325 | 742 ft | 18 kts | 171° |
| 2026-05-05 18:28 | 45.60740 | 8.72358 | 742 ft | 17 kts | 169° |
| 2026-05-05 18:29 | 45.60657 | 8.72414 | 742 ft | 12 kts | 128° |
| 2026-05-05 18:29 | 45.60638 | 8.72520 | 741 ft | 10 kts | 99° |
| 2026-05-05 18:29 | 45.60626 | 8.72644 | 742 ft | 13 kts | 95° |
| 2026-05-05 18:29 | 45.60618 | 8.72768 | 742 ft | 15 kts | 95° |
| 2026-05-05 18:30 | 45.60607 | 8.72948 | 742 ft | 19 kts | 95° |
| 2026-05-05 18:30 | 45.60591 | 8.73137 | 742 ft | 19 kts | 95° |
| 2026-05-05 18:30 | 45.60650 | 8.73286 | 742 ft | 19 kts | 25° |
| 2026-05-05 18:30 | 45.60777 | 8.73355 | 742 ft | 20 kts | 22° |
| 2026-05-05 18:31 | 45.60916 | 8.73407 | 740 ft | 21 kts | 353° |
| 2026-05-05 18:31 | 45.61064 | 8.73366 | 740 ft | 23 kts | 349° |
| 2026-05-05 18:31 | 45.61222 | 8.73323 | 742 ft | 24 kts | 349° |
| 2026-05-05 18:31 | 45.61387 | 8.73275 | 742 ft | 25 kts | 348° |
| 2026-05-05 18:32 | 45.61557 | 8.73228 | 742 ft | 21 kts | 350° |
| 2026-05-05 18:32 | 45.61626 | 8.73329 | 742 ft | 16 kts | 82° |
| 2026-05-05 18:32 | 45.61627 | 8.73452 | 741 ft | 9 kts | 121° |
| 2026-05-05 18:32 | 45.61598 | 8.73521 | 741 ft | 8 kts | 118° |
| 2026-05-05 18:33 | 45.61589 | 8.73645 | 742 ft | 14 kts | 77° |
| 2026-05-05 18:33 | 45.61621 | 8.73746 | 742 ft | 7 kts | 1° |
| 2026-05-05 18:33 | 45.61691 | 8.73722 | 742 ft | 22 kts | 349° |
| 2026-05-05 18:33 | 45.62098 | 8.73608 | 742 ft | 94 kts | 349° |
| 2026-05-05 18:34 | 45.62924 | 8.73379 | 742 ft | 148 kts | 349° |
| 2026-05-05 18:34 | 45.64036 | 8.73075 | 1082 ft | 166 kts | 349° |
| 2026-05-05 18:34 | 45.65205 | 8.72774 | 1798 ft | 169 kts | 352° |
| 2026-05-05 18:34 | 45.66412 | 8.72649 | 2223 ft | 187 kts | 5° |
| 2026-05-05 18:35 | 45.67780 | 8.72718 | 2624 ft | 205 kts | 2° |
| 2026-05-05 18:35 | 45.69282 | 8.72709 | 2988 ft | 228 kts | 0° |
| 2026-05-05 18:35 | 45.70907 | 8.72680 | 3697 ft | 237 kts | 1° |
| 2026-05-05 18:35 | 45.72502 | 8.73203 | 4536 ft | 240 kts | 33° |
| 2026-05-05 18:36 | 45.73604 | 8.74984 | 5301 ft | 243 kts | 63° |
| 2026-05-05 18:36 | 45.74304 | 8.77206 | 6179 ft | 245 kts | 72° |
| 2026-05-05 18:36 | 45.74553 | 8.79593 | 6976 ft | 245 kts | 99° |
| 2026-05-05 18:36 | 45.74186 | 8.81977 | 7572 ft | 257 kts | 110° |
| 2026-05-05 18:37 | 45.73514 | 8.84391 | 8339 ft | 260 kts | 118° |
| 2026-05-05 18:37 | 45.72832 | 8.86824 | 9142 ft | 271 kts | 105° |
| 2026-05-05 18:37 | 45.72886 | 8.89612 | 9583 ft | 295 kts | 73° |
| 2026-05-05 18:37 | 45.73887 | 8.92197 | 10267 ft | 306 kts | 47° |
| 2026-05-05 18:38 | 45.75680 | 8.93958 | 10635 ft | 325 kts | 19° |
| 2026-05-05 18:38 | 45.77876 | 8.94982 | 11080 ft | 342 kts | 18° |
| 2026-05-05 18:38 | 45.80168 | 8.96171 | 11466 ft | 358 kts | 20° |
| 2026-05-05 18:38 | 45.82513 | 8.97517 | 12156 ft | 365 kts | 21° |
| 2026-05-05 18:39 | 45.84840 | 8.98924 | 12853 ft | 370 kts | 22° |
| 2026-05-05 18:39 | 45.87255 | 9.00411 | 13575 ft | 375 kts | 21° |
| 2026-05-05 18:39 | 45.89671 | 9.01898 | 14238 ft | 380 kts | 21° |
| 2026-05-05 18:39 | 45.92115 | 9.03392 | 14853 ft | 385 kts | 21° |
| 2026-05-05 18:40 | 45.94604 | 9.04896 | 15456 ft | 390 kts | 20° |
| 2026-05-05 18:40 | 45.97145 | 9.06087 | 16039 ft | 392 kts | 10° |
| 2026-05-05 18:40 | 45.99851 | 9.06615 | 16639 ft | 393 kts | 359° |
| 2026-05-05 18:40 | 46.02578 | 9.06457 | 17239 ft | 393 kts | 349° |
| 2026-05-05 18:41 | 46.05309 | 9.05997 | 17876 ft | 397 kts | 349° |
| 2026-05-05 18:41 | 46.08074 | 9.05543 | 18447 ft | 401 kts | 349° |
| 2026-05-05 18:41 | 46.10864 | 9.05091 | 18943 ft | 405 kts | 349° |
| 2026-05-05 18:41 | 46.13677 | 9.04635 | 19499 ft | 409 kts | 349° |
| 2026-05-05 18:42 | 46.16523 | 9.04178 | 20002 ft | 413 kts | 349° |
| 2026-05-05 18:42 | 46.19395 | 9.03753 | 20533 ft | 417 kts | 350° |
| 2026-05-05 18:42 | 46.22304 | 9.03361 | 21052 ft | 421 kts | 351° |
| 2026-05-05 18:42 | 46.25201 | 9.02995 | 21553 ft | 424 kts | 351° |
| 2026-05-05 18:43 | 46.28153 | 9.02627 | 22078 ft | 428 kts | 351° |
| 2026-05-05 18:43 | 46.31133 | 9.02246 | 22585 ft | 431 kts | 350° |
| 2026-05-05 18:43 | 46.34173 | 9.01847 | 23071 ft | 435 kts | 350° |
| 2026-05-05 18:43 | 46.37163 | 9.01449 | 23536 ft | 438 kts | 350° |
| 2026-05-05 18:44 | 46.40212 | 9.01040 | 23862 ft | 441 kts | 350° |
| 2026-05-05 18:44 | 46.43277 | 9.00624 | 23959 ft | 442 kts | 350° |
| 2026-05-05 18:44 | 46.46341 | 9.00205 | 23973 ft | 442 kts | 350° |
| 2026-05-05 18:44 | 46.49408 | 8.99793 | 23974 ft | 443 kts | 350° |
| 2026-05-05 18:45 | 46.52479 | 8.99387 | 23973 ft | 443 kts | 350° |
| 2026-05-05 18:45 | 46.55544 | 8.98979 | 23969 ft | 442 kts | 350° |
| 2026-05-05 18:45 | 46.58609 | 8.98567 | 23971 ft | 442 kts | 350° |
| 2026-05-05 18:45 | 46.61675 | 8.98150 | 23976 ft | 442 kts | 350° |
| 2026-05-05 18:46 | 46.64729 | 8.97737 | 23950 ft | 441 kts | 351° |
| 2026-05-05 18:46 | 46.67781 | 8.97321 | 23957 ft | 441 kts | 350° |
| 2026-05-05 18:46 | 46.70806 | 8.96908 | 23942 ft | 441 kts | 350° |
| 2026-05-05 18:46 | 46.73850 | 8.96494 | 23974 ft | 440 kts | 351° |
| 2026-05-05 18:47 | 46.76903 | 8.96081 | 23976 ft | 441 kts | 350° |
| 2026-05-05 18:47 | 46.79962 | 8.95665 | 23959 ft | 441 kts | 351° |
| 2026-05-05 18:47 | 46.83023 | 8.95249 | 23956 ft | 441 kts | 351° |
| 2026-05-05 18:47 | 46.86077 | 8.94835 | 23953 ft | 440 kts | 351° |
| 2026-05-05 18:48 | 46.89126 | 8.94424 | 23932 ft | 439 kts | 351° |
| 2026-05-05 18:48 | 46.92174 | 8.94010 | 23931 ft | 439 kts | 351° |
| 2026-05-05 18:48 | 46.95209 | 8.93593 | 23927 ft | 439 kts | 351° |
| 2026-05-05 18:48 | 46.98258 | 8.93169 | 23916 ft | 439 kts | 351° |
| 2026-05-05 18:49 | 47.01282 | 8.92747 | 23915 ft | 440 kts | 351° |
| 2026-05-05 18:49 | 47.04328 | 8.92324 | 23919 ft | 439 kts | 351° |
| 2026-05-05 18:49 | 47.07367 | 8.91904 | 23922 ft | 437 kts | 351° |
| 2026-05-05 18:49 | 47.10395 | 8.91488 | 23926 ft | 437 kts | 351° |
| 2026-05-05 18:50 | 47.13381 | 8.91076 | 23921 ft | 436 kts | 352° |
| 2026-05-05 18:50 | 47.16407 | 8.90657 | 23919 ft | 436 kts | 351° |
| 2026-05-05 18:50 | 47.19433 | 8.90237 | 23917 ft | 435 kts | 351° |
| 2026-05-05 18:50 | 47.22450 | 8.89817 | 23913 ft | 435 kts | 351° |
| 2026-05-05 18:51 | 47.25431 | 8.89413 | 23912 ft | 435 kts | 354° |
| 2026-05-05 18:51 | 47.28471 | 8.89474 | 23912 ft | 438 kts | 4° |
| 2026-05-05 18:51 | 47.31475 | 8.90305 | 23909 ft | 440 kts | 16° |
| 2026-05-05 18:51 | 47.34256 | 8.92106 | 23780 ft | 435 kts | 28° |
| 2026-05-05 18:52 | 47.36898 | 8.94253 | 23552 ft | 432 kts | 28° |
| 2026-05-05 18:52 | 47.39483 | 8.96388 | 23292 ft | 430 kts | 28° |
| 2026-05-05 18:52 | 47.42076 | 8.98555 | 22991 ft | 427 kts | 29° |
| 2026-05-05 18:52 | 47.44646 | 9.00718 | 22422 ft | 423 kts | 29° |
| 2026-05-05 18:53 | 47.47188 | 9.02865 | 21917 ft | 417 kts | 30° |
| 2026-05-05 18:53 | 47.49704 | 9.04988 | 21400 ft | 413 kts | 29° |
| 2026-05-05 18:53 | 47.52191 | 9.07082 | 20870 ft | 410 kts | 29° |
| 2026-05-05 18:53 | 47.54627 | 9.09134 | 20477 ft | 408 kts | 29° |
| 2026-05-05 18:54 | 47.57060 | 9.11188 | 20106 ft | 407 kts | 29° |
| 2026-05-05 18:54 | 47.59510 | 9.13256 | 19729 ft | 405 kts | 29° |
| 2026-05-05 18:54 | 47.61980 | 9.15335 | 19361 ft | 402 kts | 29° |
| 2026-05-05 18:54 | 47.64253 | 9.17245 | 19016 ft | 400 kts | 29° |
| 2026-05-05 18:55 | 47.66669 | 9.19278 | 18666 ft | 398 kts | 28° |
| 2026-05-05 18:55 | 47.69068 | 9.21303 | 18308 ft | 396 kts | 28° |
| 2026-05-05 18:55 | 47.71462 | 9.23334 | 17926 ft | 395 kts | 28° |
| 2026-05-05 18:55 | 47.73844 | 9.25362 | 17516 ft | 393 kts | 28° |
| 2026-05-05 18:56 | 47.76211 | 9.27372 | 17197 ft | 391 kts | 27° |
| 2026-05-05 18:56 | 47.78679 | 9.29016 | 16900 ft | 387 kts | 17° |
| 2026-05-05 18:56 | 47.81245 | 9.29993 | 16616 ft | 383 kts | 7° |
| 2026-05-05 18:56 | 47.83886 | 9.30354 | 16331 ft | 380 kts | 0° |
| 2026-05-05 18:57 | 47.86520 | 9.30545 | 16048 ft | 378 kts | 0° |
| 2026-05-05 18:57 | 47.89142 | 9.30756 | 15768 ft | 377 kts | 2° |
| 2026-05-05 18:57 | 47.91735 | 9.31476 | 15489 ft | 378 kts | 10° |
| 2026-05-05 18:57 | 47.94338 | 9.32309 | 15208 ft | 376 kts | 9° |
| 2026-05-05 18:58 | 47.96858 | 9.33054 | 14933 ft | 375 kts | 8° |
| 2026-05-05 18:58 | 47.99421 | 9.33777 | 14676 ft | 373 kts | 8° |
| 2026-05-05 18:58 | 48.01960 | 9.34475 | 14262 ft | 370 kts | 7° |
| 2026-05-05 18:58 | 48.04489 | 9.35164 | 13812 ft | 367 kts | 7° |
| 2026-05-05 18:59 | 48.06997 | 9.35844 | 13327 ft | 365 kts | 7° |
| 2026-05-05 18:59 | 48.09503 | 9.36525 | 12813 ft | 364 kts | 7° |
| 2026-05-05 18:59 | 48.11986 | 9.37207 | 12328 ft | 361 kts | 7° |
| 2026-05-05 18:59 | 48.14406 | 9.37883 | 11861 ft | 359 kts | 7° |
| 2026-05-05 19:00 | 48.16859 | 9.38574 | 11393 ft | 357 kts | 7° |
| 2026-05-05 19:00 | 48.19295 | 9.39261 | 10920 ft | 354 kts | 7° |
| 2026-05-05 19:00 | 48.21719 | 9.39940 | 10465 ft | 352 kts | 7° |
| 2026-05-05 19:00 | 48.24117 | 9.40611 | 10018 ft | 350 kts | 7° |
| 2026-05-05 19:01 | 48.26487 | 9.41278 | 9680 ft | 344 kts | 7° |
| 2026-05-05 19:01 | 48.28817 | 9.41937 | 9422 ft | 335 kts | 7° |
| 2026-05-05 19:01 | 48.31079 | 9.42579 | 9205 ft | 326 kts | 7° |
| 2026-05-05 19:01 | 48.33270 | 9.43201 | 9072 ft | 314 kts | 6° |
| 2026-05-05 19:02 | 48.35372 | 9.43892 | 8928 ft | 309 kts | 16° |
| 2026-05-05 19:02 | 48.37264 | 9.45448 | 8708 ft | 311 kts | 32° |
| 2026-05-05 19:02 | 48.39019 | 9.47333 | 8448 ft | 309 kts | 33° |
| 2026-05-05 19:02 | 48.40748 | 9.49244 | 8192 ft | 308 kts | 34° |
| 2026-05-05 19:03 | 48.42476 | 9.51156 | 7937 ft | 307 kts | 34° |
| 2026-05-05 19:03 | 48.44198 | 9.53056 | 7675 ft | 306 kts | 34° |
| 2026-05-05 19:03 | 48.45908 | 9.54945 | 7419 ft | 304 kts | 34° |
| 2026-05-05 19:03 | 48.47603 | 9.56817 | 7165 ft | 299 kts | 34° |
| 2026-05-05 19:04 | 48.49258 | 9.58655 | 6958 ft | 291 kts | 34° |
| 2026-05-05 19:04 | 48.50854 | 9.60442 | 6814 ft | 279 kts | 34° |
| 2026-05-05 19:04 | 48.52388 | 9.62161 | 6700 ft | 271 kts | 34° |
| 2026-05-05 19:04 | 48.53898 | 9.63839 | 6576 ft | 268 kts | 31° |
| 2026-05-05 19:05 | 48.55574 | 9.64911 | 6449 ft | 260 kts | 8° |
| 2026-05-05 19:05 | 48.57335 | 9.65441 | 6330 ft | 258 kts | 4° |
| 2026-05-05 19:05 | 48.59107 | 9.65889 | 6208 ft | 257 kts | 4° |
| 2026-05-05 19:05 | 48.60851 | 9.66314 | 6087 ft | 256 kts | 4° |
| 2026-05-05 19:06 | 48.62604 | 9.66649 | 6007 ft | 251 kts | 353° |
| 2026-05-05 19:06 | 48.64319 | 9.66385 | 6017 ft | 246 kts | 345° |
| 2026-05-05 19:06 | 48.66015 | 9.65957 | 6019 ft | 247 kts | 344° |
| 2026-05-05 19:06 | 48.67685 | 9.65423 | 6025 ft | 241 kts | 332° |
| 2026-05-05 19:07 | 48.68621 | 9.64588 | 6017 ft | 232 kts | 312° |
| 2026-05-05 19:07 | 48.69729 | 9.62835 | 6010 ft | 230 kts | 305° |
| 2026-05-05 19:07 | 48.70757 | 9.60989 | 6015 ft | 229 kts | 304° |
| 2026-05-05 19:07 | 48.71777 | 9.59121 | 6017 ft | 230 kts | 304° |
| 2026-05-05 19:08 | 48.72791 | 9.57240 | 6017 ft | 230 kts | 302° |
| 2026-05-05 19:08 | 48.73505 | 9.55164 | 6013 ft | 215 kts | 286° |
| 2026-05-05 19:08 | 48.73990 | 9.53105 | 5888 ft | 197 kts | 284° |
| 2026-05-05 19:08 | 48.74280 | 9.51185 | 5767 ft | 178 kts | 267° |
| 2026-05-05 19:09 | 48.74106 | 9.49428 | 5605 ft | 163 kts | 252° |
| 2026-05-05 19:09 | 48.73798 | 9.47786 | 5209 ft | 162 kts | 253° |
| 2026-05-05 19:09 | 48.73493 | 9.46163 | 4853 ft | 162 kts | 254° |
| 2026-05-05 19:09 | 48.73187 | 9.44527 | 4418 ft | 163 kts | 253° |
| 2026-05-05 19:10 | 48.72878 | 9.42876 | 4038 ft | 163 kts | 253° |
| 2026-05-05 19:10 | 48.72565 | 9.41203 | 3651 ft | 168 kts | 253° |
| 2026-05-05 19:10 | 48.72242 | 9.39481 | 3312 ft | 169 kts | 253° |
| 2026-05-05 19:10 | 48.71932 | 9.37827 | 3062 ft | 156 kts | 253° |
| 2026-05-05 19:11 | 48.71645 | 9.36295 | 2848 ft | 148 kts | 253° |
| 2026-05-05 19:11 | 48.71366 | 9.34820 | 2640 ft | 144 kts | 253° |
| 2026-05-05 19:11 | 48.71103 | 9.33377 | 2452 ft | 142 kts | 254° |
| 2026-05-05 19:11 | 48.70839 | 9.31925 | 2276 ft | 144 kts | 252° |
| 2026-05-05 19:12 | 48.70558 | 9.30460 | 2082 ft | 146 kts | 253° |
| 2026-05-05 19:12 | 48.70272 | 9.28972 | 1864 ft | 148 kts | 254° |
| 2026-05-05 19:12 | 48.69988 | 9.27498 | 1658 ft | 148 kts | 253° |
| 2026-05-05 19:12 | 48.69711 | 9.26007 | 1459 ft | 147 kts | 253° |
| 2026-05-05 19:13 | 48.69431 | 9.24515 | 1271 ft | 147 kts | 253° |
| 2026-05-05 19:13 | 48.69166 | 9.23108 | 1224 ft | 126 kts | 251° |
| 2026-05-05 19:13 | 48.68953 | 9.22012 | 1250 ft | 95 kts | 254° |
| 2026-05-05 19:13 | 48.68791 | 9.21153 | 1267 ft | 76 kts | 253° |
| 2026-05-05 19:14 | 48.68677 | 9.20566 | 1281 ft | 34 kts | 256° |
| 2026-05-05 19:14 | 48.68688 | 9.20274 | 1289 ft | 26 kts | 279° |
| 2026-05-05 19:14 | 48.68735 | 9.20046 | 1288 ft | 12 kts | 307° |
| 2026-05-05 19:14 | 48.68742 | 9.20036 | 1288 ft | 0 kts | 311° |
| 2026-05-05 19:15 | 48.68746 | 9.20027 | 1288 ft | 4 kts | 311° |
| 2026-05-05 19:15 | 48.68810 | 9.19909 | 1288 ft | 23 kts | 308° |
| 2026-05-05 19:15 | 48.68883 | 9.19865 | 1288 ft | 9 kts | 328° |
| 2026-05-05 19:16 | 48.68882 | 9.19783 | 1285 ft | 8 kts | 253° |
| 2026-05-05 19:16 | 48.68865 | 9.19700 | 1286 ft | 10 kts | 252° |
| 2026-05-05 19:16 | 48.68842 | 9.19584 | 1290 ft | 12 kts | 254° |
| 2026-05-05 19:16 | 48.68817 | 9.19448 | 1289 ft | 14 kts | 255° |
| 2026-05-05 19:17 | 48.68800 | 9.19385 | 1288 ft | 2 kts | 201° |
| 2026-05-05 19:17 | 48.68770 | 9.19393 | 1285 ft | 6 kts | 165° |
| 2026-05-05 19:17 | 48.68740 | 9.19406 | 1287 ft | 2 kts | 164° |
| 2026-05-05 19:17 | 48.68738 | 9.19407 | 1286 ft | 0 kts | 164° |